Atco, New Jersey
Current Conditions -  °F | °C
As of 4:54 AM on Thursday 23 Oct 2014 (Local Time) from KVAY Reporting Station
Overcast Overcast  
Wind Chill: 52°   Ceiling: 2400
Heat Index: 52°   Visibility: 10mi
Dew Point: 47°   Wind: 14mph
Humidity: 83%   Direction: 340°NNW
Pressure: 29.73"   Gusts: 22mph
Location:  39.77°N, 74.89°W
Report Text: KVAY 230854Z AUTO 34012G19KT 10SM OVC024 11/08 A2973 RMK AO2 SLP066 60001 T01110083 55000
Loading
Personal Weather Stations






























Interactive Weather Map
Tropical Storm Tracking
New forecast layout! Learn more

10-Day Weather Forecast

Advertisements
Track Severe Weather on mobile